Terminal Aerodrome Forecast
Issued by NWS

Home | Current Version | Previous Version | Text Only | Print | Product List | Glossary On
Versions: 1 2 3 4 5 6 7 8 9 10 11 12 13 14
000
FTUS43 KMQT 271729
TAFCMX
TAF
KCMX 271729Z 2718/2818 14006KT P6SM BKN120
     FM272200 10008KT P6SM BKN080
     FM280000 09008KT P6SM VCSH OVC045
     FM280300 10007KT 6SM BR VCSH OVC030
     FM281000 26005KT P6SM BKN025
     FM281200 27006KT P6SM BKN008
     FM281300 28006KT P6SM BKN015
     FM281400 29006KT P6SM SCT040=

USA.gov is the U.S. government's official web portal to all federal, state and local government web resources and services.